Time;durP1;ratioP1;P1;durP2;ratioP2;P2;SDS_P1;SDS_P2;PMS_P1;PMS_P2;Temp;Humidity;BMP_temperature;BMP_pressure;BME280_temperature;BME280_humidity;BME280_pressure;Samples;Min_cycle;Max_cycle;Signal;HPM_P1;HPM_P2
2023/11/29 00:02:15;;;;;;;7.18;5.90;;;29.50;99.90;;;;;;5055837;28;20024;-67
2023/11/29 00:04:42;;;;;;;7.28;6.30;;;29.80;99.90;;;;;;5060197;28;20024;-70
2023/11/29 00:07:09;;;;;;;6.53;5.47;;;29.60;99.90;;;;;;5061781;28;20039;-64
2023/11/29 00:09:36;;;;;;;10.98;7.47;;;29.70;99.90;;;;;;5054956;28;20078;-69
2023/11/29 00:12:03;;;;;;;5.85;5.22;;;29.90;99.90;;;;;;5056491;28;20037;-72
2023/11/29 00:14:30;;;;;;;6.13;5.40;;;30.10;99.90;;;;;;5062778;28;20075;-71
2023/11/29 00:16:57;;;;;;;7.22;5.05;;;30.10;99.90;;;;;;5060816;28;20676;-66
2023/11/29 00:19:24;;;;;;;7.25;4.90;;;30.10;99.90;;;;;;5056044;28;20033;-71
2023/11/29 00:21:51;;;;;;;5.32;4.85;;;30.20;99.90;;;;;;5061324;28;20899;-71
2023/11/29 00:24:18;;;;;;;6.82;4.53;;;30.30;99.90;;;;;;5058048;28;20071;-66
2023/11/29 00:26:45;;;;;;;4.57;3.85;;;30.50;99.90;;;;;;5062474;28;20017;-72
2023/11/29 00:29:12;;;;;;;5.10;4.57;;;30.50;99.90;;;;;;5056615;28;20035;-67
2023/11/29 00:31:40;;;;;;;5.45;4.22;;;30.50;99.90;;;;;;5053745;28;20104;-71
2023/11/29 00:34:09;;;;;;;5.15;4.03;;;30.70;99.90;;;;;;5062774;28;21012;-71
2023/11/29 00:36:36;;;;;;;5.60;4.47;;;30.80;99.90;;;;;;5066161;28;20078;-68
2023/11/29 00:39:05;;;;;;;6.13;4.18;;;30.80;99.90;;;;;;5058662;22;20020;-72
2023/11/29 00:41:32;;;;;;;3.75;3.40;;;31.20;99.90;;;;;;5027624;28;20036;-72
2023/11/29 00:43:59;;;;;;;5.25;3.60;;;31.50;99.90;;;;;;5026824;28;20032;-67
2023/11/29 00:46:26;;;;;;;6.65;3.95;;;31.80;99.90;;;;;;5027263;28;20060;-72
2023/11/29 00:48:53;;;;;;;5.35;3.35;;;32.00;99.90;;;;;;5027145;28;20020;-65
2023/11/29 00:51:19;;;;;;;4.15;3.35;;;31.90;99.90;;;;;;5030286;28;20017;-70
2023/11/29 00:53:46;;;;;;;4.18;3.45;;;31.90;99.90;;;;;;5027724;28;20025;-66
2023/11/29 00:56:13;;;;;;;5.20;3.42;;;31.60;99.90;;;;;;5022263;28;20100;-71
2023/11/29 00:58:40;;;;;;;5.93;4.03;;;31.30;99.90;;;;;;5030401;28;20037;-71
2023/11/29 01:01:07;;;;;;;5.47;3.35;;;31.10;99.90;;;;;;5028729;28;20032;-66
2023/11/29 01:03:34;;;;;;;3.15;2.85;;;30.90;99.90;;;;;;5026649;28;20026;-66
2023/11/29 01:06:01;;;;;;;3.38;2.40;;;30.80;99.90;;;;;;5030870;28;20030;-65
2023/11/29 01:08:28;;;;;;;3.20;2.20;;;30.80;99.90;;;;;;5032733;28;20026;-69
2023/11/29 01:10:55;;;;;;;2.50;2.30;;;31.20;99.90;;;;;;5024612;28;20029;-66
2023/11/29 01:13:22;;;;;;;4.95;2.42;;;31.90;99.90;;;;;;5027094;28;20033;-66
2023/11/29 01:15:50;;;;;;;4.72;2.22;;;32.60;99.90;;;;;;5032633;28;20112;-72
2023/11/29 01:18:17;;;;;;;3.15;2.20;;;32.70;99.60;;;;;;5031473;28;20443;-67
2023/11/29 01:20:44;;;;;;;3.45;1.92;;;32.70;99.10;;;;;;5033893;28;20021;-72
2023/11/29 01:23:11;;;;;;;2.35;1.92;;;32.40;99.20;;;;;;5031523;28;20037;-72
2023/11/29 01:25:38;;;;;;;2.85;2.40;;;32.60;99.30;;;;;;5035819;28;20021;-67
2023/11/29 01:28:06;;;;;;;3.90;2.20;;;32.30;99.40;;;;;;5037210;28;20068;-72
2023/11/29 01:30:33;;;;;;;2.70;1.98;;;31.80;99.70;;;;;;5038226;28;20036;-72
2023/11/29 01:33:00;;;;;;;2.65;2.00;;;31.80;99.50;;;;;;5038387;28;20025;-72
2023/11/29 01:35:27;;;;;;;3.50;2.47;;;31.90;99.20;;;;;;5036592;28;20075;-72
2023/11/29 01:37:54;;;;;;;3.47;2.05;;;31.90;99.50;;;;;;5036458;28;20400;-67
2023/11/29 01:40:21;;;;;;;3.83;2.03;;;31.50;99.20;;;;;;5037801;28;21220;-72
2023/11/29 01:42:48;;;;;;;2.22;1.75;;;31.30;99.30;;;;;;5039275;28;20021;-67
2023/11/29 01:45:15;;;;;;;2.72;2.33;;;31.40;99.60;;;;;;5041812;28;20032;-68
2023/11/29 01:47:43;;;;;;;2.58;2.00;;;31.40;99.20;;;;;;5036169;28;20032;-73
2023/11/29 01:50:13;;;;;;;4.60;2.15;;;31.60;99.10;;;;;;5042843;28;20040;-71
2023/11/29 01:52:43;;;;;;;3.72;1.80;;;31.80;99.60;;;;;;5039019;28;20033;-72
2023/11/29 01:55:13;;;;;;;2.22;1.90;;;32.70;99.50;;;;;;5037408;28;20453;-68
2023/11/29 01:57:41;;;;;;;7.38;4.32;;;33.00;98.00;;;;;;5041013;28;20703;-72
2023/11/29 02:00:10;;;;;;;4.00;2.53;;;33.70;98.30;;;;;;5039465;28;20013;-68
2023/11/29 02:02:37;;;;;;;4.80;4.40;;;34.30;97.80;;;;;;5039484;28;20506;-66
2023/11/29 02:05:04;;;;;;;2.65;2.13;;;34.40;97.40;;;;;;5033332;28;20905;-66
2023/11/29 02:07:31;;;;;;;2.03;1.77;;;34.20;97.90;;;;;;5040122;28;20021;-70
2023/11/29 02:09:59;;;;;;;2.13;1.90;;;34.50;97.40;;;;;;5036247;28;20136;-67
2023/11/29 02:12:26;;;;;;;3.58;1.98;;;34.20;96.90;;;;;;5032753;28;20029;-67
2023/11/29 02:14:56;;;;;;;6.38;3.70;;;34.30;96.20;;;;;;5041577;28;20026;-71
2023/11/29 02:17:23;;;;;;;7.40;6.75;;;34.20;96.10;;;;;;5036300;28;20029;-66
2023/11/29 02:19:51;;;;;;;5.03;2.22;;;34.30;97.60;;;;;;5036011;28;20095;-67
2023/11/29 02:22:18;;;;;;;2.53;2.20;;;34.30;96.40;;;;;;5041058;28;20596;-67
2023/11/29 02:24:49;;;;;;;2.95;2.30;;;34.40;96.50;;;;;;5039391;28;20547;-71
2023/11/29 02:27:15;;;;;;;3.38;2.28;;;35.00;96.70;;;;;;5042253;28;20569;-67
2023/11/29 02:29:42;;;;;;;4.10;2.20;;;35.30;96.00;;;;;;5033716;28;20584;-67
2023/11/29 02:32:09;;;;;;;5.35;4.85;;;34.60;96.80;;;;;;5034908;28;20044;-67
2023/11/29 02:34:36;;;;;;;6.13;3.42;;;34.60;96.00;;;;;;5036284;28;20032;-71
2023/11/29 02:37:04;;;;;;;4.63;3.60;;;34.40;95.90;;;;;;5037840;28;20024;-68
2023/11/29 02:39:31;;;;;;;4.38;2.60;;;35.10;96.20;;;;;;5035613;28;20036;-71
2023/11/29 02:41:58;;;;;;;3.40;1.80;;;34.80;96.40;;;;;;5039234;28;21507;-70
2023/11/29 02:44:25;;;;;;;3.42;2.10;;;34.40;96.60;;;;;;5041062;28;20455;-68
2023/11/29 02:46:52;;;;;;;4.00;2.25;;;34.40;97.00;;;;;;5037334;28;20029;-67
2023/11/29 02:49:19;;;;;;;5.10;2.20;;;34.70;96.70;;;;;;5038352;28;20029;-70
2023/11/29 02:51:46;;;;;;;3.70;2.17;;;34.50;96.20;;;;;;5035491;28;20487;-67
2023/11/29 02:54:13;;;;;;;3.22;2.38;;;34.50;97.40;;;;;;5036638;28;20048;-66
2023/11/29 02:56:40;;;;;;;3.47;1.88;;;34.20;97.10;;;;;;5032504;28;20438;-67
2023/11/29 02:59:07;;;;;;;5.40;2.33;;;33.70;96.70;;;;;;5037018;28;20535;-66
2023/11/29 03:01:34;;;;;;;4.63;1.85;;;33.00;97.10;;;;;;5039661;28;20021;-71
2023/11/29 03:04:01;;;;;;;3.30;2.17;;;32.30;98.70;;;;;;5035882;28;20052;-67
2023/11/29 03:06:28;;;;;;;2.80;2.10;;;31.60;99.60;;;;;;5038217;28;20701;-71
2023/11/29 03:08:55;;;;;;;5.38;2.78;;;31.10;99.90;;;;;;5038989;28;20061;-66
2023/11/29 03:11:22;;;;;;;5.20;2.25;;;30.80;99.90;;;;;;5038189;28;20717;-71
2023/11/29 03:13:49;;;;;;;7.63;2.38;;;30.40;99.90;;;;;;5039837;28;20013;-67
2023/11/29 03:16:16;;;;;;;3.88;2.15;;;30.00;99.90;;;;;;5038451;28;20542;-73
2023/11/29 03:18:43;;;;;;;4.63;1.95;;;29.70;99.90;;;;;;5038622;28;20551;-70
2023/11/29 03:21:10;;;;;;;5.10;2.17;;;29.40;99.90;;;;;;5037644;28;20033;-66
2023/11/29 03:23:37;;;;;;;4.45;2.53;;;29.30;99.90;;;;;;5038547;28;20035;-72
2023/11/29 03:26:07;;;;;;;3.30;2.13;;;29.20;99.90;;;;;;5036827;28;20617;-73
2023/11/29 03:28:34;;;;;;;6.00;2.38;;;29.00;99.90;;;;;;5035370;28;20033;-71
2023/11/29 03:31:01;;;;;;;5.28;2.47;;;28.90;99.90;;;;;;5035725;28;20041;-71
2023/11/29 03:33:28;;;;;;;8.15;3.88;;;28.70;99.90;;;;;;5033375;28;20056;-67
2023/11/29 03:35:57;;;;;;;6.38;2.75;;;28.50;99.90;;;;;;5035698;28;20504;-65
2023/11/29 03:38:24;;;;;;;7.40;3.95;;;28.30;99.90;;;;;;5031316;28;20902;-73
2023/11/29 03:40:51;;;;;;;14.98;6.75;;;28.10;99.90;;;;;;5033767;28;20128;-73
2023/11/29 03:43:18;;;;;;;6.32;2.45;;;27.90;99.90;;;;;;5033364;28;20044;-71
2023/11/29 03:45:45;;;;;;;8.70;2.70;;;27.70;99.90;;;;;;5036985;28;20025;-66
2023/11/29 03:48:12;;;;;;;4.25;2.17;;;27.50;99.90;;;;;;5034889;28;20029;-65
2023/11/29 03:50:39;;;;;;;5.22;3.00;;;27.50;99.90;;;;;;5038201;28;21105;-73
2023/11/29 03:53:06;;;;;;;4.70;2.08;;;27.50;99.90;;;;;;5035690;28;20074;-67
2023/11/29 03:55:33;;;;;;;7.93;2.30;;;27.40;99.90;;;;;;5035098;28;20021;-67
2023/11/29 03:58:00;;;;;;;7.50;2.67;;;27.30;99.90;;;;;;5033595;28;20031;-67
2023/11/29 04:00:27;;;;;;;5.82;2.45;;;27.20;99.90;;;;;;5030708;28;20128;-70
2023/11/29 04:02:54;;;;;;;5.32;2.22;;;27.10;99.90;;;;;;5036287;28;20025;-67
2023/11/29 04:05:23;;;;;;;5.65;2.33;;;27.00;99.90;;;;;;5035574;28;20605;-67
2023/11/29 04:07:50;;;;;;;5.03;2.05;;;26.90;99.90;;;;;;5037293;28;20447;-72
2023/11/29 04:10:17;;;;;;;4.47;2.10;;;26.70;99.90;;;;;;5035999;28;20031;-67
2023/11/29 04:12:44;;;;;;;4.60;2.15;;;26.50;99.90;;;;;;5038845;28;20056;-66
2023/11/29 04:15:11;;;;;;;7.85;2.20;;;26.30;99.90;;;;;;5036776;28;20055;-66
2023/11/29 04:17:38;;;;;;;8.38;3.65;;;26.10;99.90;;;;;;5035180;28;20017;-71
2023/11/29 04:20:06;;;;;;;7.05;2.83;;;26.00;99.90;;;;;;5034823;28;20102;-74
2023/11/29 04:22:37;;;;;;;9.75;2.97;;;25.90;99.90;;;;;;5035381;28;20140;-74
2023/11/29 04:25:07;;;;;;;7.38;3.60;;;25.80;99.90;;;;;;5034012;28;20071;-71
2023/11/29 04:27:34;;;;;;;6.07;2.25;;;25.70;99.90;;;;;;5034663;28;20031;-65
2023/11/29 04:30:02;;;;;;;7.35;2.65;;;25.70;99.90;;;;;;5037172;28;20048;-70
2023/11/29 04:32:29;;;;;;;10.10;2.60;;;25.50;99.90;;;;;;5034804;28;20025;-65
2023/11/29 04:34:56;;;;;;;7.13;2.15;;;25.50;99.90;;;;;;5037263;28;20032;-64
2023/11/29 04:37:23;;;;;;;5.55;2.47;;;25.30;99.90;;;;;;5035071;28;20029;-65
2023/11/29 04:39:50;;;;;;;5.00;2.20;;;25.30;99.90;;;;;;5035675;28;20051;-73
2023/11/29 04:42:17;;;;;;;5.38;2.15;;;25.20;99.90;;;;;;5034827;28;20716;-72
2023/11/29 04:44:44;;;;;;;3.17;1.52;;;25.20;99.90;;;;;;5037540;28;20541;-66
2023/11/29 04:47:11;;;;;;;7.85;2.63;;;25.10;99.90;;;;;;5034577;28;20128;-62
2023/11/29 04:49:39;;;;;;;8.25;2.78;;;24.80;99.90;;;;;;5033111;28;20034;-61
2023/11/29 04:52:07;;;;;;;4.47;1.65;;;23.10;99.90;;;;;;5030880;28;20056;-63
2023/11/29 04:54:33;;;;;;;5.25;2.20;;;22.10;99.90;;;;;;5034751;28;20025;-63
2023/11/29 04:57:00;;;;;;;4.65;3.22;;;21.60;99.90;;;;;;5031659;28;20033;-68
2023/11/29 04:59:27;;;;;;;6.65;2.60;;;21.10;99.90;;;;;;5031215;28;20057;-64
2023/11/29 05:01:54;;;;;;;5.93;2.40;;;20.70;99.90;;;;;;5032518;28;20101;-65
2023/11/29 05:04:21;;;;;;;5.30;2.30;;;20.20;99.90;;;;;;5029248;28;20096;-66
2023/11/29 05:06:48;;;;;;;7.45;2.33;;;19.90;99.90;;;;;;5028656;28;20033;-67
2023/11/29 05:09:15;;;;;;;6.50;1.95;;;19.70;99.90;;;;;;5029207;28;20040;-62
2023/11/29 05:11:42;;;;;;;3.58;1.83;;;19.60;99.90;;;;;;5033163;28;20037;-70
2023/11/29 05:14:09;;;;;;;5.97;2.42;;;19.60;99.90;;;;;;5036802;28;20466;-62
2023/11/29 05:16:36;;;;;;;5.03;2.25;;;19.70;99.90;;;;;;5030820;28;20083;-66
2023/11/29 05:19:05;;;;;;;5.75;1.88;;;19.80;99.90;;;;;;5032661;28;20033;-72
2023/11/29 05:21:33;;;;;;;4.93;2.30;;;19.70;99.90;;;;;;5038743;28;20387;-65
2023/11/29 05:24:00;;;;;;;4.65;2.17;;;19.60;99.90;;;;;;5040287;28;20024;-65
2023/11/29 05:26:27;;;;;;;7.32;3.55;;;19.60;99.90;;;;;;5039115;28;20036;-68
2023/11/29 05:28:54;;;;;;;5.97;2.47;;;19.70;99.90;;;;;;5040673;28;20032;-66
2023/11/29 05:31:21;;;;;;;7.68;2.30;;;19.70;99.90;;;;;;5035773;28;20037;-71
2023/11/29 05:33:49;;;;;;;5.03;2.53;;;19.60;99.90;;;;;;5037392;28;20024;-62
2023/11/29 05:36:19;;;;;;;4.38;2.13;;;19.70;99.90;;;;;;5032556;28;20112;-66
2023/11/29 05:38:46;;;;;;;5.72;2.42;;;19.80;99.90;;;;;;5036963;28;20029;-66
2023/11/29 05:41:13;;;;;;;2.97;1.60;;;20.00;99.90;;;;;;5036338;28;20505;-65
2023/11/29 05:43:40;;;;;;;3.13;1.63;;;20.00;99.90;;;;;;5033960;28;20056;-69
2023/11/29 05:46:07;;;;;;;5.13;1.92;;;20.10;99.90;;;;;;5035454;28;20200;-65
2023/11/29 05:48:34;;;;;;;5.78;1.77;;;20.20;99.90;;;;;;5034472;28;20897;-66
2023/11/29 05:51:01;;;;;;;4.50;1.95;;;20.30;99.90;;;;;;5033245;28;20040;-62
2023/11/29 05:53:28;;;;;;;6.63;3.13;;;20.40;99.90;;;;;;5030597;28;20467;-65
2023/11/29 05:55:55;;;;;;;7.13;3.50;;;20.50;99.90;;;;;;5029349;28;20104;-67
2023/11/29 05:58:25;;;;;;;5.25;1.90;;;20.60;99.90;;;;;;5029685;28;20033;-70
2023/11/29 06:00:52;;;;;;;4.82;2.28;;;20.60;99.90;;;;;;5033640;28;20546;-68
2023/11/29 06:03:21;;;;;;;6.72;2.53;;;20.70;99.90;;;;;;5026569;28;20036;-65
2023/11/29 06:05:49;;;;;;;8.25;2.75;;;20.60;99.90;;;;;;5030477;28;20040;-61
2023/11/29 06:08:16;;;;;;;12.40;8.27;;;20.60;99.90;;;;;;5037048;28;20035;-64
2023/11/29 06:10:44;;;;;;;16.98;11.05;;;20.50;99.90;;;;;;5033932;28;20040;-63
2023/11/29 06:13:11;;;;;;;10.05;4.28;;;20.30;99.90;;;;;;5035996;28;20017;-68
2023/11/29 06:15:38;;;;;;;8.38;3.95;;;20.30;99.90;;;;;;5035325;28;20021;-68
2023/11/29 06:18:08;;;;;;;12.68;3.75;;;20.30;99.90;;;;;;5036853;28;20025;-69
2023/11/29 06:20:36;;;;;;;8.25;3.80;;;20.40;99.90;;;;;;5035228;28;20026;-65
2023/11/29 06:23:03;;;;;;;7.10;3.95;;;20.70;99.90;;;;;;5036205;28;20025;-63
2023/11/29 06:25:30;;;;;;;9.88;7.43;;;21.00;99.90;;;;;;5033905;28;20025;-60
2023/11/29 06:27:57;;;;;;;8.18;2.33;;;21.60;99.90;;;;;;5035935;28;20443;-64
2023/11/29 06:30:24;;;;;;;4.82;2.30;;;22.40;99.90;;;;;;5032883;28;20103;-67
2023/11/29 06:32:51;;;;;;;3.58;1.80;;;22.80;99.90;;;;;;5032206;28;20028;-65
2023/11/29 06:35:18;;;;;;;5.93;3.00;;;22.80;99.90;;;;;;5039270;28;20104;-64
2023/11/29 06:37:47;;;;;;;5.50;2.72;;;22.60;99.90;;;;;;5036334;28;20206;-65
2023/11/29 06:40:16;;;;;;;4.68;1.95;;;22.40;99.90;;;;;;5032905;28;20124;-64
2023/11/29 06:42:43;;;;;;;4.95;1.67;;;22.10;99.90;;;;;;5036367;28;20025;-65
2023/11/29 06:45:11;;;;;;;4.32;1.63;;;22.00;99.90;;;;;;5036783;28;20029;-65
2023/11/29 06:47:38;;;;;;;4.25;1.63;;;21.70;99.90;;;;;;5035390;28;20488;-63
2023/11/29 06:50:06;;;;;;;6.47;1.45;;;21.60;99.90;;;;;;5036710;28;20057;-64
2023/11/29 06:52:33;;;;;;;3.53;1.83;;;21.50;99.90;;;;;;5039914;28;20194;-65
2023/11/29 06:55:00;;;;;;;4.35;1.60;;;21.40;99.90;;;;;;5035883;28;20849;-65
2023/11/29 06:57:27;;;;;;;3.17;1.88;;;21.10;99.90;;;;;;5038518;28;20021;-64
2023/11/29 06:59:54;;;;;;;3.03;1.70;;;21.00;99.90;;;;;;5034465;28;20060;-65
2023/11/29 07:02:21;;;;;;;3.20;2.00;;;20.90;99.90;;;;;;5037874;28;20178;-61
2023/11/29 07:04:48;;;;;;;3.90;2.10;;;20.80;99.90;;;;;;5034475;28;20056;-67
2023/11/29 07:07:16;;;;;;;6.40;2.50;;;20.80;99.90;;;;;;5038700;28;20036;-62
2023/11/29 07:09:45;;;;;;;3.13;2.13;;;20.90;99.90;;;;;;5034814;28;20071;-62
2023/11/29 07:12:12;;;;;;;1.75;1.13;;;20.90;99.90;;;;;;5033284;28;20033;-66
2023/11/29 07:14:39;;;;;;;2.83;1.10;;;20.90;99.90;;;;;;5033029;28;20023;-67
2023/11/29 07:17:06;;;;;;;3.13;1.20;;;20.70;99.90;;;;;;5035625;28;20029;-64
2023/11/29 07:19:33;;;;;;;2.20;0.90;;;20.50;99.90;;;;;;5032100;28;20017;-65
2023/11/29 07:22:00;;;;;;;3.75;1.83;;;20.40;99.90;;;;;;5035636;28;20041;-64
2023/11/29 07:24:27;;;;;;;4.53;3.75;;;20.30;99.90;;;;;;5033808;28;20368;-62
2023/11/29 07:26:54;;;;;;;2.53;2.00;;;20.20;99.90;;;;;;5036454;28;20033;-62
2023/11/29 07:29:21;;;;;;;1.85;0.95;;;20.20;99.90;;;;;;5033177;28;20098;-61
2023/11/29 07:31:48;;;;;;;0.65;0.60;;;20.20;99.90;;;;;;5036029;28;20079;-63
2023/11/29 07:34:15;;;;;;;2.55;1.15;;;20.10;99.90;;;;;;5031756;28;20483;-64
2023/11/29 07:36:49;;;;;;;3.17;2.70;;;20.10;99.90;;;;;;5035955;28;20029;-64
2023/11/29 07:39:16;;;;;;;3.45;1.38;;;20.10;99.90;;;;;;5034440;28;20500;-64
2023/11/29 07:41:43;;;;;;;3.90;1.27;;;20.00;99.90;;;;;;5029238;28;20025;-63
2023/11/29 07:44:10;;;;;;;6.18;1.60;;;20.00;99.90;;;;;;5030712;28;20025;-63
2023/11/29 07:46:38;;;;;;;0.93;0.75;;;20.10;99.90;;;;;;5031926;28;20021;-67
2023/11/29 07:49:05;;;;;;;1.33;1.00;;;20.00;99.90;;;;;;5030959;28;20035;-67
2023/11/29 07:51:32;;;;;;;1.90;0.52;;;19.90;99.90;;;;;;5032363;28;20061;-62
2023/11/29 07:53:59;;;;;;;2.70;1.10;;;20.00;99.90;;;;;;4679491;28;9999577;-64
2023/11/29 07:56:26;;;;;;;1.92;0.93;;;19.90;99.90;;;;;;5026158;28;20030;-63
2023/11/29 07:58:53;;;;;;;2.15;0.90;;;19.80;99.90;;;;;;5029277;28;20651;-64
2023/11/29 08:01:20;;;;;;;1.50;0.68;;;19.70;99.90;;;;;;5028199;28;20021;-62
2023/11/29 08:03:47;;;;;;;1.52;0.85;;;19.60;99.90;;;;;;5030672;28;20061;-63
2023/11/29 08:06:13;;;;;;;1.23;0.73;;;19.60;99.90;;;;;;5026394;28;20039;-62
2023/11/29 08:08:40;;;;;;;2.13;0.98;;;19.50;99.90;;;;;;5031233;28;20026;-67
2023/11/29 08:11:07;;;;;;;2.75;0.80;;;19.60;99.90;;;;;;5032881;28;20102;-63
2023/11/29 08:13:34;;;;;;;6.60;1.10;;;19.60;99.90;;;;;;5028134;28;20028;-68
2023/11/29 08:16:01;;;;;;;4.88;1.45;;;19.60;99.90;;;;;;5029509;28;20053;-68
2023/11/29 08:18:30;;;;;;;6.38;3.20;;;19.60;99.90;;;;;;5028754;28;20222;-68
2023/11/29 08:20:58;;;;;;;7.50;1.80;;;19.50;99.90;;;;;;5028832;28;20036;-66
2023/11/29 08:23:25;;;;;;;3.80;1.63;;;19.50;99.90;;;;;;5028619;28;20037;-68
2023/11/29 08:25:52;;;;;;;2.60;1.15;;;19.60;99.90;;;;;;5028793;28;20104;-66
2023/11/29 08:28:19;;;;;;;3.15;1.27;;;19.70;99.90;;;;;;5030938;28;20025;-65
2023/11/29 08:30:46;;;;;;;3.67;1.10;;;19.60;99.90;;;;;;5025773;28;20438;-63
2023/11/29 08:33:13;;;;;;;4.22;1.63;;;19.70;99.90;;;;;;5028714;28;20518;-69
2023/11/29 08:35:42;;;;;;;5.68;1.58;;;19.60;99.90;;;;;;5027955;28;20029;-64
2023/11/29 08:38:09;;;;;;;5.55;1.17;;;19.70;99.90;;;;;;5030529;28;20017;-68
2023/11/29 08:40:36;;;;;;;2.05;1.05;;;19.70;99.90;;;;;;5027443;28;20037;-66
2023/11/29 08:43:05;;;;;;;1.50;1.02;;;19.80;99.90;;;;;;5029602;28;20459;-64
2023/11/29 08:45:33;;;;;;;1.92;1.27;;;19.80;99.90;;;;;;5027917;28;20138;-69
2023/11/29 08:48:00;;;;;;;3.75;1.10;;;19.80;99.90;;;;;;5027268;28;20112;-63
2023/11/29 08:50:27;;;;;;;2.78;0.80;;;19.60;99.90;;;;;;5030771;28;20041;-69
2023/11/29 08:52:54;;;;;;;1.73;1.20;;;19.60;99.90;;;;;;5031068;28;20037;-65
2023/11/29 08:55:21;;;;;;;1.75;1.10;;;19.70;99.90;;;;;;5026343;28;20040;-65
2023/11/29 08:57:49;;;;;;;3.65;0.82;;;19.70;99.90;;;;;;5030123;28;20075;-68
2023/11/29 09:00:20;;;;;;;5.18;1.25;;;19.80;99.90;;;;;;5029403;28;20026;-66
2023/11/29 09:02:47;;;;;;;3.75;1.35;;;19.80;99.90;;;;;;5032337;28;20152;-65
2023/11/29 09:05:17;;;;;;;7.35;5.03;;;19.80;99.90;;;;;;5028055;28;20087;-66
2023/11/29 09:07:44;;;;;;;4.55;1.50;;;19.80;99.90;;;;;;5026587;28;20025;-65
2023/11/29 09:10:12;;;;;;;4.22;1.48;;;19.80;99.90;;;;;;5028352;28;20029;-66
2023/11/29 09:12:39;;;;;;;5.93;1.05;;;19.70;99.90;;;;;;5031354;28;20028;-68
2023/11/29 09:15:06;;;;;;;3.45;1.40;;;19.80;99.90;;;;;;5027590;28;20184;-68
2023/11/29 09:17:33;;;;;;;6.03;1.90;;;19.80;99.90;;;;;;5028233;28;20083;-66
2023/11/29 09:20:00;;;;;;;3.20;1.17;;;19.90;99.90;;;;;;5026925;28;20379;-63
2023/11/29 09:22:27;;;;;;;2.08;1.20;;;19.90;99.90;;;;;;5028029;28;20060;-70
2023/11/29 09:24:54;;;;;;;3.60;1.00;;;19.90;99.90;;;;;;5029048;28;20033;-70
2023/11/29 09:27:21;;;;;;;3.75;1.25;;;19.90;99.90;;;;;;5030657;28;20036;-65
2023/11/29 09:29:49;;;;;;;6.47;1.55;;;19.80;99.90;;;;;;5029592;28;20112;-69
2023/11/29 09:32:16;;;;;;;2.58;1.38;;;19.80;99.90;;;;;;5025912;28;20539;-65
2023/11/29 09:34:43;;;;;;;3.13;1.20;;;19.90;99.90;;;;;;5030706;28;20490;-68
2023/11/29 09:37:09;;;;;;;2.28;1.45;;;19.90;99.90;;;;;;5028973;28;20029;-61
2023/11/29 09:39:37;;;;;;;2.97;1.50;;;19.80;99.90;;;;;;5027679;28;20420;-61
2023/11/29 09:42:04;;;;;;;5.78;1.58;;;19.80;99.90;;;;;;5027345;28;20036;-63
2023/11/29 09:44:32;;;;;;;4.35;1.15;;;19.70;99.90;;;;;;5026361;28;20032;-66
2023/11/29 09:47:00;;;;;;;0.95;0.82;;;19.60;99.90;;;;;;5028666;28;20025;-61
2023/11/29 09:49:28;;;;;;;2.20;1.05;;;19.50;99.90;;;;;;5032665;28;20021;-61
2023/11/29 09:51:56;;;;;;;1.83;1.13;;;19.60;99.90;;;;;;5030698;28;20488;-63
2023/11/29 09:54:24;;;;;;;3.00;1.27;;;19.50;99.90;;;;;;5032494;28;20456;-66
2023/11/29 09:56:51;;;;;;;2.53;1.02;;;19.50;99.90;;;;;;5027375;28;20544;-62
2023/11/29 09:59:21;;;;;;;2.47;1.30;;;19.60;99.90;;;;;;5033736;28;20031;-61
2023/11/29 10:01:48;;;;;;;1.88;1.30;;;19.70;99.90;;;;;;5031186;28;20029;-63
2023/11/29 10:04:15;;;;;;;3.95;1.50;;;19.80;99.90;;;;;;5032910;28;20610;-61
2023/11/29 10:06:42;;;;;;;3.92;1.05;;;19.80;99.90;;;;;;5031254;28;20022;-74
2023/11/29 10:09:13;;;;;;;2.35;1.00;;;19.80;99.90;;;;;;5034884;28;20028;-61
2023/11/29 10:11:43;;;;;;;4.97;1.45;;;19.80;99.90;;;;;;5035736;28;20063;-61
2023/11/29 10:14:11;;;;;;;2.63;1.17;;;19.80;99.90;;;;;;5038197;28;20032;-61
2023/11/29 10:16:38;;;;;;;3.40;1.38;;;19.80;99.90;;;;;;5036706;28;20814;-68
2023/11/29 10:19:09;;;;;;;1.48;1.08;;;19.70;99.90;;;;;;5038333;28;20556;-66
2023/11/29 10:21:43;;;;;;;2.80;1.38;;;19.60;99.90;;;;;;5033740;28;20021;-62
2023/11/29 10:24:10;;;;;;;1.77;1.23;;;19.70;99.90;;;;;;5033885;28;20024;-60
2023/11/29 10:26:37;;;;;;;3.55;1.33;;;19.50;99.90;;;;;;5034322;28;20033;-66
2023/11/29 10:29:04;;;;;;;4.45;1.20;;;19.50;99.90;;;;;;5028787;28;20144;-65
2023/11/29 10:31:32;;;;;;;2.58;1.10;;;19.50;99.90;;;;;;5028664;28;20859;-62
2023/11/29 10:34:00;;;;;;;2.47;1.52;;;19.50;99.90;;;;;;5032177;28;20030;-61
2023/11/29 10:36:27;;;;;;;2.78;1.23;;;19.50;99.90;;;;;;5034715;28;20309;-63
2023/11/29 10:39:08;;;;;;;4.88;1.58;;;19.60;99.90;;;;;;5031484;28;20262;-61
2023/11/29 10:41:43;;;;;;;2.63;1.33;;;19.60;99.90;;;;;;5030743;28;20029;-67
2023/11/29 10:44:13;;;;;;;4.70;1.80;;;19.60;99.90;;;;;;5035161;28;20387;-62
2023/11/29 10:46:41;;;;;;;2.58;1.40;;;19.50;99.90;;;;;;5034220;28;20028;-61
2023/11/29 10:49:22;;;;;;;3.83;1.67;;;19.40;99.90;;;;;;5037476;28;20118;-70
2023/11/29 10:51:49;;;;;;;3.58;1.92;;;19.30;99.90;;;;;;5051086;28;20478;-66
2023/11/29 10:54:18;;;;;;;2.90;1.67;;;19.30;99.90;;;;;;5034932;28;20032;-62
2023/11/29 10:56:46;;;;;;;2.85;1.60;;;19.30;99.90;;;;;;5033740;28;20021;-61
2023/11/29 10:59:32;;;;;;;4.20;1.70;;;19.20;99.90;;;;;;5036047;28;20032;-70
2023/11/29 11:01:59;;;;;;;6.07;1.58;;;19.20;99.90;;;;;;5034699;28;20025;-67
2023/11/29 11:04:42;;;;;;;3.67;1.63;;;19.20;99.90;;;;;;5037210;28;20044;-61
2023/11/29 11:07:42;;;;;;;2.20;1.58;;;19.10;99.90;;;;;;5035691;28;20033;-61
2023/11/29 11:10:11;;;;;;;2.83;2.53;;;19.10;99.90;;;;;;5037220;28;20044;-68
2023/11/29 11:12:40;;;;;;;3.83;2.00;;;19.00;99.90;;;;;;5038232;28;20037;-61
2023/11/29 11:15:20;;;;;;;3.08;1.95;;;19.10;99.90;;;;;;5037856;28;20026;-69
2023/11/29 11:18:07;;;;;;;3.47;2.30;;;19.10;99.90;;;;;;5038549;28;20020;-67
2023/11/29 11:20:50;;;;;;;2.63;1.55;;;18.90;99.90;;;;;;5038416;28;20029;-64
2023/11/29 11:23:27;;;;;;;3.05;2.10;;;19.10;99.90;;;;;;5035443;28;20041;-61
2023/11/29 11:25:56;;;;;;;4.57;1.70;;;19.10;99.90;;;;;;5032213;28;20068;-66
2023/11/29 11:28:34;;;;;;;3.10;1.58;;;19.10;99.90;;;;;;5034364;28;20600;-61
2023/11/29 11:31:06;;;;;;;2.88;1.50;;;19.00;99.90;;;;;;5037027;28;20113;-68
2023/11/29 11:34:09;;;;;;;4.70;1.93;;;18.90;99.90;;;;;;5032608;28;20086;-61
2023/11/29 11:36:37;;;;;;;3.65;2.20;;;18.90;99.90;;;;;;4941144;28;20352;-68
2023/11/29 11:39:06;;;;;;;4.22;2.47;;;18.90;99.90;;;;;;4940539;28;20074;-61
2023/11/29 11:41:34;;;;;;;5.07;1.77;;;18.80;99.90;;;;;;4945364;28;20043;-62
2023/11/29 11:44:01;;;;;;;2.67;1.83;;;18.80;99.90;;;;;;4945131;28;20154;-68
2023/11/29 11:46:28;;;;;;;4.70;2.03;;;18.90;99.90;;;;;;4945812;28;20042;-62
2023/11/29 11:48:55;;;;;;;3.95;1.80;;;18.90;99.90;;;;;;4948194;28;20835;-62
2023/11/29 11:51:22;;;;;;;5.90;2.45;;;18.90;99.90;;;;;;4947712;28;20794;-61
2023/11/29 11:53:50;;;;;;;3.88;2.10;;;18.80;99.90;;;;;;4944085;28;20039;-66
2023/11/29 11:56:22;;;;;;;4.13;1.83;;;18.80;99.90;;;;;;4945656;28;20023;-66
2023/11/29 11:58:49;;;;;;;3.30;2.07;;;19.00;99.90;;;;;;4946218;28;20074;-63
2023/11/29 12:01:16;;;;;;;4.82;2.22;;;19.00;99.90;;;;;;4946889;28;20182;-69
2023/11/29 12:03:43;;;;;;;3.80;2.22;;;19.00;99.90;;;;;;4946057;28;20030;-63
2023/11/29 12:06:11;;;;;;;4.20;2.13;;;18.90;99.90;;;;;;4944823;28;20090;-62
2023/11/29 12:08:39;;;;;;;2.83;1.60;;;18.90;99.90;;;;;;4944291;28;20043;-62
2023/11/29 12:11:09;;;;;;;4.15;2.03;;;18.90;99.90;;;;;;4945849;28;20582;-69
2023/11/29 12:13:37;;;;;;;2.75;2.15;;;19.10;99.90;;;;;;5004469;28;20493;-62
2023/11/29 12:16:26;;;;;;;3.08;1.88;;;19.20;99.90;;;;;;5015713;28;20022;-69
2023/11/29 12:18:53;;;;;;;4.50;1.95;;;19.20;99.90;;;;;;5016075;28;20025;-67
2023/11/29 12:21:20;;;;;;;4.45;2.50;;;19.20;99.90;;;;;;5022337;28;20043;-62
2023/11/29 12:23:47;;;;;;;3.92;2.45;;;19.10;99.90;;;;;;5021015;28;20032;-63
2023/11/29 12:26:17;;;;;;;4.40;2.38;;;19.10;99.90;;;;;;5022010;28;20546;-67
2023/11/29 12:28:44;;;;;;;3.20;2.40;;;19.10;99.90;;;;;;5013246;28;20047;-69
2023/11/29 12:31:13;;;;;;;4.25;2.50;;;19.10;99.90;;;;;;5018480;28;20041;-61
2023/11/29 12:33:40;;;;;;;2.92;2.30;;;19.10;99.90;;;;;;5030231;28;20037;-63
2023/11/29 12:36:09;;;;;;;3.72;2.63;;;19.00;99.90;;;;;;5028143;28;20180;-61
2023/11/29 12:41:09;;;;;;;5.82;3.03;;;19.00;99.90;;;;;;5041566;28;20045;-60
2023/11/29 12:43:36;;;;;;;6.03;3.03;;;19.00;99.90;;;;;;5044697;28;20086;-68
2023/11/29 12:46:03;;;;;;;4.57;3.03;;;19.10;99.90;;;;;;5045695;28;20028;-69
2023/11/29 12:48:30;;;;;;;4.05;3.10;;;19.10;99.90;;;;;;5045286;28;20576;-63
2023/11/29 12:50:56;;;;;;;4.80;3.55;;;19.10;99.90;;;;;;5045315;28;20025;-62
2023/11/29 12:53:23;;;;;;;5.90;4.13;;;19.10;99.90;;;;;;5044372;28;20041;-67